createdAt,value
2023-05-17T00:03:15.323Z,1.40
2023-05-17T00:08:37.799Z,1.40
2023-05-17T00:14:00.364Z,1.53
2023-05-17T00:19:22.900Z,1.23
2023-05-17T00:24:45.296Z,1.70
2023-05-17T00:30:08.335Z,1.33
2023-05-17T00:35:34.785Z,1.40
2023-05-17T00:40:56.994Z,1.40
2023-05-17T00:46:19.555Z,1.30
2023-05-17T00:51:42.197Z,1.60
2023-05-17T00:57:06.704Z,1.80
2023-05-17T01:02:32.863Z,1.70
2023-05-17T01:07:55.613Z,1.77
2023-05-17T01:13:40.696Z,1.47
2023-05-17T01:19:14.835Z,1.50
2023-05-17T01:24:53.092Z,1.70
2023-05-17T01:30:18.162Z,1.90
2023-05-17T01:35:40.722Z,1.60
2023-05-17T01:41:19.843Z,1.80
2023-05-17T01:46:43.643Z,2.03
2023-05-17T01:52:43.402Z,1.90
2023-05-17T01:58:08.070Z,2.00
2023-05-17T02:03:30.427Z,2.17
2023-05-17T02:08:53.710Z,2.47
2023-05-17T02:14:16.194Z,2.40
2023-05-17T02:19:38.465Z,2.30
2023-05-17T02:25:02.853Z,2.37
2023-05-17T02:30:25.575Z,2.37
2023-05-17T02:35:49.804Z,2.40
2023-05-17T02:41:15.241Z,2.57
2023-05-17T02:46:40.014Z,2.40
2023-05-17T02:52:02.576Z,2.53
2023-05-17T02:57:25.315Z,2.90
2023-05-17T03:02:47.739Z,2.90
2023-05-17T03:08:10.512Z,2.33
2023-05-17T03:13:35.790Z,2.50
2023-05-17T03:18:58.639Z,2.20
2023-05-17T03:24:21.135Z,2.80
2023-05-17T03:29:44.115Z,2.73
2023-05-17T03:35:07.104Z,2.87
2023-05-17T03:40:31.001Z,3.20
2023-05-17T03:45:54.871Z,3.00
2023-05-17T03:51:17.714Z,3.17
2023-05-17T03:56:40.470Z,3.80
2023-05-17T04:02:04.901Z,3.27
2023-05-17T04:07:27.832Z,3.30
2023-05-17T04:12:50.314Z,3.53
2023-05-17T04:18:12.736Z,3.20
2023-05-17T04:23:35.767Z,3.80
2023-05-17T04:28:57.985Z,3.20
2023-05-17T04:34:22.414Z,3.17
2023-05-17T04:39:44.988Z,3.70
2023-05-17T04:45:07.999Z,3.40
2023-05-17T04:50:31.242Z,3.00
2023-05-17T04:55:53.599Z,3.30
2023-05-17T05:01:16.388Z,3.13
2023-05-17T05:06:39.085Z,3.40
2023-05-17T05:12:01.834Z,3.53
2023-05-17T05:17:26.246Z,3.83
2023-05-17T05:22:49.902Z,3.23
2023-05-17T05:28:14.007Z,3.30
2023-05-17T05:33:37.608Z,3.37
2023-05-17T05:39:00.459Z,3.57
2023-05-17T05:44:25.931Z,3.63
2023-05-17T05:49:50.682Z,3.40
2023-05-17T05:55:13.569Z,2.87
2023-05-17T06:00:38.674Z,2.57
2023-05-17T06:06:01.161Z,2.77
2023-05-17T06:11:26.548Z,2.37
2023-05-17T06:16:49.080Z,2.57
2023-05-17T06:22:11.415Z,2.30
2023-05-17T06:27:36.359Z,2.63
2023-05-17T06:32:59.205Z,2.23
2023-05-17T06:38:21.750Z,3.43
2023-05-17T06:43:46.342Z,2.03
2023-05-17T06:49:09.217Z,2.40
2023-05-17T06:54:32.213Z,2.53
2023-05-17T06:59:54.561Z,2.17
2023-05-17T07:05:17.193Z,2.47
2023-05-17T07:10:39.773Z,2.10
2023-05-17T07:16:02.203Z,2.03
2023-05-17T07:21:24.676Z,2.70
2023-05-17T07:26:47.185Z,2.10
2023-05-17T07:32:10.195Z,2.03
2023-05-17T07:37:34.531Z,1.87
2023-05-17T07:42:56.851Z,2.00
2023-05-17T07:48:19.412Z,2.30
2023-05-17T07:53:42.171Z,2.47
2023-05-17T07:59:04.388Z,1.80
2023-05-17T08:04:26.897Z,2.43
2023-05-17T08:09:50.037Z,2.50
2023-05-17T08:15:12.547Z,2.10
2023-05-17T08:20:35.096Z,2.07
2023-05-17T08:25:57.274Z,2.13
2023-05-17T08:31:20.054Z,1.90
2023-05-17T08:36:42.896Z,2.17
2023-05-17T08:42:08.131Z,2.03
2023-05-17T08:47:34.033Z,1.77
2023-05-17T08:52:58.407Z,1.67
2023-05-17T08:58:25.935Z,1.67
2023-05-17T09:03:49.864Z,1.30
2023-05-17T09:09:12.806Z,1.93
2023-05-17T09:14:35.990Z,1.70
2023-05-17T09:19:59.383Z,1.97
2023-05-17T09:25:24.344Z,1.80
2023-05-17T09:30:49.508Z,1.27
2023-05-17T09:36:22.691Z,1.83
2023-05-17T09:41:47.996Z,2.00
2023-05-17T09:47:10.828Z,1.90
2023-05-17T09:52:35.807Z,1.87
2023-05-17T09:58:03.427Z,1.67
2023-05-17T10:03:33.402Z,0.90
2023-05-17T10:08:57.708Z,1.20
2023-05-17T10:14:26.232Z,1.60
2023-05-17T10:19:49.934Z,1.53
2023-05-17T10:25:12.742Z,0.90
2023-05-17T10:30:36.234Z,2.20
2023-05-17T10:35:59.503Z,1.37
2023-05-17T10:41:24.334Z,1.70
2023-05-17T10:46:57.770Z,1.67
2023-05-17T10:52:23.823Z,1.60
2023-05-17T10:58:09.271Z,1.83
2023-05-17T11:03:34.624Z,1.25
2023-05-17T11:09:19.035Z,1.67
2023-05-17T11:14:49.077Z,1.38
2023-05-17T11:20:26.848Z,1.50
2023-05-17T11:25:50.879Z,1.40
2023-05-17T11:31:13.508Z,1.65
2023-05-17T11:36:53.415Z,1.80
2023-05-17T11:42:27.452Z,1.63
2023-05-17T11:47:50.744Z,1.65
2023-05-17T11:53:14.403Z,1.55
2023-05-17T11:58:37.404Z,1.77
2023-05-17T12:04:00.117Z,1.85
2023-05-17T12:09:24.462Z,1.48
2023-05-17T12:14:48.374Z,1.60
2023-05-17T12:20:11.026Z,1.95
2023-05-17T12:25:33.619Z,1.90
2023-05-17T12:31:03.017Z,1.70
2023-05-17T12:36:29.300Z,1.92
2023-05-17T12:41:52.909Z,1.95
2023-05-17T12:47:15.200Z,1.58
2023-05-17T12:52:37.892Z,1.80
2023-05-17T12:58:03.745Z,1.98
2023-05-17T13:03:27.446Z,1.45
2023-05-17T13:09:01.831Z,1.80
2023-05-17T13:14:41.201Z,1.33
2023-05-17T13:20:10.588Z,1.42
2023-05-17T13:25:33.274Z,1.58
2023-05-17T13:30:56.084Z,1.58
2023-05-17T13:36:18.714Z,1.42
2023-05-17T13:41:41.292Z,1.58
2023-05-17T13:47:04.037Z,1.63
2023-05-17T13:52:26.748Z,1.60
2023-05-17T13:57:49.157Z,1.35
2023-05-17T14:03:15.202Z,1.42
2023-05-17T14:08:37.817Z,1.65
2023-05-17T14:14:01.951Z,1.98
2023-05-17T14:19:24.483Z,1.80
2023-05-17T14:24:47.166Z,1.63
2023-05-17T14:30:11.508Z,1.95
2023-05-17T14:35:35.555Z,1.80
2023-05-17T14:40:59.189Z,1.70
2023-05-17T14:46:21.921Z,1.40
2023-05-17T14:51:45.090Z,1.52
2023-05-17T14:57:11.964Z,1.48
2023-05-17T15:02:34.357Z,1.67
2023-05-17T15:07:56.737Z,1.50
2023-05-17T15:13:18.994Z,1.58
2023-05-17T15:18:41.558Z,2.05
2023-05-17T15:24:04.194Z,1.77
2023-05-17T15:29:26.640Z,1.70
2023-05-17T15:34:49.073Z,1.45
2023-05-17T15:40:11.865Z,1.70
2023-05-17T15:45:34.593Z,1.63
2023-05-17T15:50:57.506Z,1.45
2023-05-17T15:56:21.107Z,1.77
2023-05-17T16:01:46.293Z,1.20
2023-05-17T16:07:08.536Z,1.23
2023-05-17T16:12:31.158Z,1.38
2023-05-17T16:17:53.917Z,1.95
2023-05-17T16:23:16.820Z,1.70
2023-05-17T16:28:39.495Z,1.50
2023-05-17T16:34:02.236Z,1.80
2023-05-17T16:39:27.227Z,1.80
2023-05-17T16:44:49.549Z,1.70
2023-05-17T16:50:13.622Z,1.30
2023-05-17T16:55:36.730Z,1.83
2023-05-17T17:00:59.400Z,1.73
2023-05-17T17:06:22.781Z,1.35
2023-05-17T17:11:46.162Z,1.63
2023-05-17T17:17:08.960Z,1.95
2023-05-17T17:22:31.972Z,1.60
2023-05-17T17:27:54.980Z,1.50
2023-05-17T17:33:17.173Z,1.48
2023-05-17T17:38:39.578Z,1.90
2023-05-17T17:44:02.233Z,2.50
2023-05-17T17:49:24.469Z,1.90
2023-05-17T17:54:47.053Z,1.87
2023-05-17T18:00:11.978Z,1.90
2023-05-17T18:05:35.164Z,1.63
2023-05-17T18:10:57.657Z,1.83
2023-05-17T18:16:19.905Z,1.77
2023-05-17T18:21:42.475Z,1.67
2023-05-17T18:27:05.028Z,1.60
2023-05-17T18:32:27.743Z,1.57
2023-05-17T18:37:50.357Z,1.63
2023-05-17T18:43:13.035Z,1.90
2023-05-17T18:48:37.029Z,2.13
2023-05-17T18:53:59.508Z,1.70
2023-05-17T18:59:21.795Z,1.33
2023-05-17T19:04:44.599Z,1.80
2023-05-17T19:10:07.662Z,2.07
2023-05-17T19:15:31.511Z,2.00
2023-05-17T19:20:53.784Z,2.83
2023-05-17T19:26:16.265Z,3.00
2023-05-17T19:31:38.706Z,2.90
2023-05-17T19:37:01.246Z,2.13
2023-05-17T19:42:23.656Z,2.70
2023-05-17T19:47:45.930Z,2.40
2023-05-17T19:53:08.137Z,1.60
2023-05-17T19:58:30.400Z,2.03
2023-05-17T20:03:53.148Z,2.33
2023-05-17T20:09:15.792Z,2.40
2023-05-17T20:14:38.456Z,2.57
2023-05-17T20:20:01.128Z,2.60
2023-05-17T20:25:23.300Z,3.03
2023-05-17T20:30:46.365Z,2.80
2023-05-17T20:36:11.807Z,2.87
2023-05-17T20:41:34.061Z,2.67
2023-05-17T20:46:59.376Z,2.30
2023-05-17T20:52:38.247Z,2.37
2023-05-17T20:58:02.269Z,2.20
2023-05-17T21:03:28.596Z,2.30
2023-05-17T21:08:52.754Z,3.00
2023-05-17T21:14:15.238Z,2.30
2023-05-17T21:19:37.763Z,2.00
2023-05-17T21:25:00.651Z,2.17
2023-05-17T21:30:23.611Z,2.10
2023-05-17T21:35:45.844Z,2.40
2023-05-17T21:41:08.322Z,2.17
2023-05-17T21:46:30.819Z,2.80
2023-05-17T21:51:53.275Z,2.63
2023-05-17T21:57:15.893Z,2.10
2023-05-17T22:02:40.869Z,1.90
2023-05-17T22:08:03.706Z,2.00
2023-05-17T22:13:26.939Z,1.90
2023-05-17T22:18:52.589Z,2.57
2023-05-17T22:24:15.667Z,1.33
2023-05-17T22:29:41.708Z,1.60
2023-05-17T22:35:04.754Z,1.60
2023-05-17T22:40:26.962Z,1.60
2023-05-17T22:45:50.253Z,1.80
2023-05-17T22:51:13.619Z,1.60
2023-05-17T22:56:36.050Z,2.33
2023-05-17T23:01:58.821Z,1.60
2023-05-17T23:07:21.963Z,2.03
2023-05-17T23:12:44.133Z,2.03
2023-05-17T23:18:06.679Z,2.03
2023-05-17T23:23:30.062Z,2.20
2023-05-17T23:28:53.757Z,1.80
2023-05-17T23:34:16.288Z,1.50
2023-05-17T23:39:38.368Z,2.00
2023-05-17T23:45:04.227Z,1.93
2023-05-17T23:50:27.312Z,2.40
2023-05-17T23:55:49.562Z,1.80
